sensor_id;sensor_type;location;lat;lon;timestamp;temperature;humidity
15160;DHT22;7680;48.800;9.680;2023-04-12T00:01:39;6.80;99.90
15160;DHT22;7680;48.800;9.680;2023-04-12T00:04:14;6.80;99.90
15160;DHT22;7680;48.800;9.680;2023-04-12T00:06:47;6.90;99.90
15160;DHT22;7680;48.800;9.680;2023-04-12T00:09:20;6.90;99.90
15160;DHT22;7680;48.800;9.680;2023-04-12T00:11:54;6.90;99.90
15160;DHT22;7680;48.800;9.680;2023-04-12T00:14:28;7.00;99.90
15160;DHT22;7680;48.800;9.680;2023-04-12T00:17:01;7.00;99.90
15160;DHT22;7680;48.800;9.680;2023-04-12T00:19:35;6.90;99.90
15160;DHT22;7680;48.800;9.680;2023-04-12T00:22:12;6.90;99.90
15160;DHT22;7680;48.800;9.680;2023-04-12T00:24:44;6.90;99.90
15160;DHT22;7680;48.800;9.680;2023-04-12T00:27:18;6.90;99.90
15160;DHT22;7680;48.800;9.680;2023-04-12T00:29:51;6.90;99.90
15160;DHT22;7680;48.800;9.680;2023-04-12T00:32:25;7.00;99.90
15160;DHT22;7680;48.800;9.680;2023-04-12T00:35:00;6.90;99.90
15160;DHT22;7680;48.800;9.680;2023-04-12T00:37:33;6.90;99.90
15160;DHT22;7680;48.800;9.680;2023-04-12T00:40:10;6.90;99.90
15160;DHT22;7680;48.800;9.680;2023-04-12T00:42:44;6.90;99.90
15160;DHT22;7680;48.800;9.680;2023-04-12T00:45:17;7.00;99.90
15160;DHT22;7680;48.800;9.680;2023-04-12T00:47:52;6.90;99.90
15160;DHT22;7680;48.800;9.680;2023-04-12T00:50:28;6.90;99.90
15160;DHT22;7680;48.800;9.680;2023-04-12T00:53:02;6.90;99.90
15160;DHT22;7680;48.800;9.680;2023-04-12T00:55:36;6.90;99.90
15160;DHT22;7680;48.800;9.680;2023-04-12T00:58:09;6.90;99.90
15160;DHT22;7680;48.800;9.680;2023-04-12T01:00:43;7.00;99.90
15160;DHT22;7680;48.800;9.680;2023-04-12T01:03:21;7.00;99.90
15160;DHT22;7680;48.800;9.680;2023-04-12T01:06:06;7.00;99.90
15160;DHT22;7680;48.800;9.680;2023-04-12T01:08:52;6.90;99.90
15160;DHT22;7680;48.800;9.680;2023-04-12T01:11:34;6.90;99.90
15160;DHT22;7680;48.800;9.680;2023-04-12T01:14:14;6.90;99.90
15160;DHT22;7680;48.800;9.680;2023-04-12T01:16:52;6.90;99.90
15160;DHT22;7680;48.800;9.680;2023-04-12T01:19:39;6.90;99.90
15160;DHT22;7680;48.800;9.680;2023-04-12T01:22:37;6.80;99.90
15160;DHT22;7680;48.800;9.680;2023-04-12T01:25:38;6.80;99.90
15160;DHT22;7680;48.800;9.680;2023-04-12T01:28:21;6.80;99.90
15160;DHT22;7680;48.800;9.680;2023-04-12T01:30:59;6.80;99.90
15160;DHT22;7680;48.800;9.680;2023-04-12T01:33:36;6.90;99.90
15160;DHT22;7680;48.800;9.680;2023-04-12T01:36:12;7.00;99.90
15160;DHT22;7680;48.800;9.680;2023-04-12T01:38:48;7.00;99.90
15160;DHT22;7680;48.800;9.680;2023-04-12T01:41:22;7.00;99.90
15160;DHT22;7680;48.800;9.680;2023-04-12T01:43:56;6.80;99.90
15160;DHT22;7680;48.800;9.680;2023-04-12T01:46:30;6.90;99.90
15160;DHT22;7680;48.800;9.680;2023-04-12T01:49:03;6.90;99.90
15160;DHT22;7680;48.800;9.680;2023-04-12T01:51:45;6.90;99.90
15160;DHT22;7680;48.800;9.680;2023-04-12T01:54:24;6.80;99.90
15160;DHT22;7680;48.800;9.680;2023-04-12T01:57:01;6.80;99.90
15160;DHT22;7680;48.800;9.680;2023-04-12T01:59:39;6.90;99.90
15160;DHT22;7680;48.800;9.680;2023-04-12T02:02:13;6.90;99.90
15160;DHT22;7680;48.800;9.680;2023-04-12T02:04:46;6.90;99.90
15160;DHT22;7680;48.800;9.680;2023-04-12T02:07:20;6.80;99.90
15160;DHT22;7680;48.800;9.680;2023-04-12T02:09:53;6.80;99.90
15160;DHT22;7680;48.800;9.680;2023-04-12T02:12:26;6.70;99.90
15160;DHT22;7680;48.800;9.680;2023-04-12T02:15:01;6.70;99.90
15160;DHT22;7680;48.800;9.680;2023-04-12T02:17:35;6.70;99.90
15160;DHT22;7680;48.800;9.680;2023-04-12T02:20:09;6.70;99.90
15160;DHT22;7680;48.800;9.680;2023-04-12T02:22:43;6.80;99.90
15160;DHT22;7680;48.800;9.680;2023-04-12T02:25:16;6.80;99.90
15160;DHT22;7680;48.800;9.680;2023-04-12T02:27:49;6.80;99.90
15160;DHT22;7680;48.800;9.680;2023-04-12T02:30:24;6.80;99.90
15160;DHT22;7680;48.800;9.680;2023-04-12T02:32:57;6.70;99.90
15160;DHT22;7680;48.800;9.680;2023-04-12T02:35:30;6.70;99.90
15160;DHT22;7680;48.800;9.680;2023-04-12T02:38:04;6.60;99.90
15160;DHT22;7680;48.800;9.680;2023-04-12T02:40:39;6.70;99.90
15160;DHT22;7680;48.800;9.680;2023-04-12T02:43:13;6.70;99.90
15160;DHT22;7680;48.800;9.680;2023-04-12T02:45:47;6.70;99.90
15160;DHT22;7680;48.800;9.680;2023-04-12T02:48:20;6.60;99.90
15160;DHT22;7680;48.800;9.680;2023-04-12T02:50:53;6.60;99.90
15160;DHT22;7680;48.800;9.680;2023-04-12T02:53:26;6.60;99.90
15160;DHT22;7680;48.800;9.680;2023-04-12T02:55:59;6.60;99.90
15160;DHT22;7680;48.800;9.680;2023-04-12T02:58:34;6.70;99.90
15160;DHT22;7680;48.800;9.680;2023-04-12T03:01:09;6.70;99.90
15160;DHT22;7680;48.800;9.680;2023-04-12T03:03:44;6.70;99.90
15160;DHT22;7680;48.800;9.680;2023-04-12T03:06:17;6.80;99.90
15160;DHT22;7680;48.800;9.680;2023-04-12T03:08:50;6.90;99.90
15160;DHT22;7680;48.800;9.680;2023-04-12T03:11:23;6.80;99.90
15160;DHT22;7680;48.800;9.680;2023-04-12T03:13:56;6.80;99.90
15160;DHT22;7680;48.800;9.680;2023-04-12T03:16:30;6.80;99.90
15160;DHT22;7680;48.800;9.680;2023-04-12T03:19:06;6.70;99.90
15160;DHT22;7680;48.800;9.680;2023-04-12T03:21:39;6.70;99.90
15160;DHT22;7680;48.800;9.680;2023-04-12T03:24:12;6.70;99.90
15160;DHT22;7680;48.800;9.680;2023-04-12T03:26:46;6.70;99.90
15160;DHT22;7680;48.800;9.680;2023-04-12T03:29:20;6.70;99.90
15160;DHT22;7680;48.800;9.680;2023-04-12T03:31:55;6.70;99.90
15160;DHT22;7680;48.800;9.680;2023-04-12T03:34:29;6.70;99.90
15160;DHT22;7680;48.800;9.680;2023-04-12T03:37:03;6.80;99.90
15160;DHT22;7680;48.800;9.680;2023-04-12T03:39:36;6.80;99.90
15160;DHT22;7680;48.800;9.680;2023-04-12T03:42:09;6.90;99.90
15160;DHT22;7680;48.800;9.680;2023-04-12T03:44:56;6.70;99.90
15160;DHT22;7680;48.800;9.680;2023-04-12T03:47:30;6.70;99.90
15160;DHT22;7680;48.800;9.680;2023-04-12T03:50:05;6.70;99.90
15160;DHT22;7680;48.800;9.680;2023-04-12T03:52:43;6.70;99.90
15160;DHT22;7680;48.800;9.680;2023-04-12T03:55:16;6.70;99.90
15160;DHT22;7680;48.800;9.680;2023-04-12T03:57:49;6.70;99.90
15160;DHT22;7680;48.800;9.680;2023-04-12T04:00:22;6.60;99.90
15160;DHT22;7680;48.800;9.680;2023-04-12T04:02:57;6.60;99.90
15160;DHT22;7680;48.800;9.680;2023-04-12T04:05:34;6.70;99.90
15160;DHT22;7680;48.800;9.680;2023-04-12T04:08:07;6.70;99.90
15160;DHT22;7680;48.800;9.680;2023-04-12T04:10:40;6.80;99.90
15160;DHT22;7680;48.800;9.680;2023-04-12T04:13:13;6.80;99.90
15160;DHT22;7680;48.800;9.680;2023-04-12T04:15:50;6.80;99.90
15160;DHT22;7680;48.800;9.680;2023-04-12T04:18:29;6.80;99.90
15160;DHT22;7680;48.800;9.680;2023-04-12T04:21:03;6.70;99.90
15160;DHT22;7680;48.800;9.680;2023-04-12T04:23:38;6.70;99.90
15160;DHT22;7680;48.800;9.680;2023-04-12T04:26:11;6.70;99.90
15160;DHT22;7680;48.800;9.680;2023-04-12T04:28:45;6.70;99.90
15160;DHT22;7680;48.800;9.680;2023-04-12T04:31:20;6.80;99.90
15160;DHT22;7680;48.800;9.680;2023-04-12T04:33:58;6.70;99.90
15160;DHT22;7680;48.800;9.680;2023-04-12T04:36:35;6.70;99.90
15160;DHT22;7680;48.800;9.680;2023-04-12T04:39:09;6.80;99.90
15160;DHT22;7680;48.800;9.680;2023-04-12T04:41:42;6.80;99.90
15160;DHT22;7680;48.800;9.680;2023-04-12T04:44:15;6.80;99.90
15160;DHT22;7680;48.800;9.680;2023-04-12T04:46:48;6.80;99.90
15160;DHT22;7680;48.800;9.680;2023-04-12T04:49:23;6.80;99.90
15160;DHT22;7680;48.800;9.680;2023-04-12T04:51:56;6.80;99.90
15160;DHT22;7680;48.800;9.680;2023-04-12T04:54:29;6.90;99.90
15160;DHT22;7680;48.800;9.680;2023-04-12T04:57:03;6.80;99.90
15160;DHT22;7680;48.800;9.680;2023-04-12T04:59:38;6.80;99.90
15160;DHT22;7680;48.800;9.680;2023-04-12T05:02:11;6.90;99.90
15160;DHT22;7680;48.800;9.680;2023-04-12T05:04:46;6.90;99.90
15160;DHT22;7680;48.800;9.680;2023-04-12T05:07:19;7.00;99.90
15160;DHT22;7680;48.800;9.680;2023-04-12T05:09:52;6.80;99.90
15160;DHT22;7680;48.800;9.680;2023-04-12T05:12:25;6.80;99.90
15160;DHT22;7680;48.800;9.680;2023-04-12T05:14:58;6.80;99.90
15160;DHT22;7680;48.800;9.680;2023-04-12T05:17:34;6.90;99.90
15160;DHT22;7680;48.800;9.680;2023-04-12T05:20:09;6.90;99.90
15160;DHT22;7680;48.800;9.680;2023-04-12T05:22:42;6.90;99.90
15160;DHT22;7680;48.800;9.680;2023-04-12T05:25:16;6.90;99.90
15160;DHT22;7680;48.800;9.680;2023-04-12T05:27:50;6.90;99.90
15160;DHT22;7680;48.800;9.680;2023-04-12T05:30:23;7.00;99.90
15160;DHT22;7680;48.800;9.680;2023-04-12T05:32:57;7.00;99.90
15160;DHT22;7680;48.800;9.680;2023-04-12T05:35:31;7.10;99.90
15160;DHT22;7680;48.800;9.680;2023-04-12T05:38:04;7.10;99.90
15160;DHT22;7680;48.800;9.680;2023-04-12T05:40:37;7.00;99.90
15160;DHT22;7680;48.800;9.680;2023-04-12T05:43:10;7.00;99.90
15160;DHT22;7680;48.800;9.680;2023-04-12T05:45:44;7.00;99.90
15160;DHT22;7680;48.800;9.680;2023-04-12T05:48:17;7.10;99.90
15160;DHT22;7680;48.800;9.680;2023-04-12T05:50:52;7.00;99.90
15160;DHT22;7680;48.800;9.680;2023-04-12T05:53:25;7.00;99.90
15160;DHT22;7680;48.800;9.680;2023-04-12T05:56:00;7.00;99.90
15160;DHT22;7680;48.800;9.680;2023-04-12T05:58:33;7.00;99.90
15160;DHT22;7680;48.800;9.680;2023-04-12T06:01:06;7.10;99.90
15160;DHT22;7680;48.800;9.680;2023-04-12T06:03:39;7.10;99.90
15160;DHT22;7680;48.800;9.680;2023-04-12T06:06:15;7.20;99.90
15160;DHT22;7680;48.800;9.680;2023-04-12T06:08:48;7.30;99.90
15160;DHT22;7680;48.800;9.680;2023-04-12T06:11:21;7.40;99.90
15160;DHT22;7680;48.800;9.680;2023-04-12T06:13:54;7.40;99.90
15160;DHT22;7680;48.800;9.680;2023-04-12T06:16:28;7.40;99.90
15160;DHT22;7680;48.800;9.680;2023-04-12T06:19:01;7.30;99.90
15160;DHT22;7680;48.800;9.680;2023-04-12T06:21:36;7.40;99.90
15160;DHT22;7680;48.800;9.680;2023-04-12T06:24:09;7.40;99.90
15160;DHT22;7680;48.800;9.680;2023-04-12T06:26:42;7.40;99.90
15160;DHT22;7680;48.800;9.680;2023-04-12T06:29:17;7.30;99.90
15160;DHT22;7680;48.800;9.680;2023-04-12T06:31:50;7.40;99.90
15160;DHT22;7680;48.800;9.680;2023-04-12T06:34:23;7.40;99.90
15160;DHT22;7680;48.800;9.680;2023-04-12T06:36:58;7.30;99.90
15160;DHT22;7680;48.800;9.680;2023-04-12T06:39:31;7.20;99.90
15160;DHT22;7680;48.800;9.680;2023-04-12T06:42:04;7.20;99.90
15160;DHT22;7680;48.800;9.680;2023-04-12T06:44:37;7.20;99.90
15160;DHT22;7680;48.800;9.680;2023-04-12T06:47:10;7.20;99.90
15160;DHT22;7680;48.800;9.680;2023-04-12T06:49:43;7.30;99.90
15160;DHT22;7680;48.800;9.680;2023-04-12T06:52:18;7.30;99.90
15160;DHT22;7680;48.800;9.680;2023-04-12T06:54:51;7.40;99.90
15160;DHT22;7680;48.800;9.680;2023-04-12T06:57:24;7.30;99.90
15160;DHT22;7680;48.800;9.680;2023-04-12T06:59:57;7.40;99.90
15160;DHT22;7680;48.800;9.680;2023-04-12T07:02:30;7.50;99.90
15160;DHT22;7680;48.800;9.680;2023-04-12T07:05:04;7.40;99.90
15160;DHT22;7680;48.800;9.680;2023-04-12T07:07:39;7.40;99.90
15160;DHT22;7680;48.800;9.680;2023-04-12T07:10:12;7.40;99.90
15160;DHT22;7680;48.800;9.680;2023-04-12T07:12:45;7.50;99.90
15160;DHT22;7680;48.800;9.680;2023-04-12T07:15:18;7.50;99.90
15160;DHT22;7680;48.800;9.680;2023-04-12T07:17:51;7.60;99.90
15160;DHT22;7680;48.800;9.680;2023-04-12T07:20:24;7.60;99.90
15160;DHT22;7680;48.800;9.680;2023-04-12T07:22:59;7.70;99.90
15160;DHT22;7680;48.800;9.680;2023-04-12T07:25:32;7.70;99.90
15160;DHT22;7680;48.800;9.680;2023-04-12T07:28:09;7.60;99.90
15160;DHT22;7680;48.800;9.680;2023-04-12T07:30:42;7.70;99.90
15160;DHT22;7680;48.800;9.680;2023-04-12T07:33:15;7.70;99.90
15160;DHT22;7680;48.800;9.680;2023-04-12T07:35:50;7.70;99.90
15160;DHT22;7680;48.800;9.680;2023-04-12T07:38:25;7.70;99.90
15160;DHT22;7680;48.800;9.680;2023-04-12T07:40:58;7.70;99.90
15160;DHT22;7680;48.800;9.680;2023-04-12T07:43:31;7.80;99.90
15160;DHT22;7680;48.800;9.680;2023-04-12T07:46:04;7.80;99.90
15160;DHT22;7680;48.800;9.680;2023-04-12T07:48:39;7.90;99.90
15160;DHT22;7680;48.800;9.680;2023-04-12T07:51:12;7.90;99.90
15160;DHT22;7680;48.800;9.680;2023-04-12T07:53:47;7.90;99.90
15160;DHT22;7680;48.800;9.680;2023-04-12T07:56:20;8.00;99.90
15160;DHT22;7680;48.800;9.680;2023-04-12T07:58:53;8.10;99.90
15160;DHT22;7680;48.800;9.680;2023-04-12T08:01:26;8.10;99.90
15160;DHT22;7680;48.800;9.680;2023-04-12T08:03:59;8.20;99.90
15160;DHT22;7680;48.800;9.680;2023-04-12T08:06:33;8.30;99.90
15160;DHT22;7680;48.800;9.680;2023-04-12T08:09:08;8.30;99.90
15160;DHT22;7680;48.800;9.680;2023-04-12T08:11:41;8.30;99.90
15160;DHT22;7680;48.800;9.680;2023-04-12T08:14:14;8.30;99.90
15160;DHT22;7680;48.800;9.680;2023-04-12T08:16:47;8.40;99.90
15160;DHT22;7680;48.800;9.680;2023-04-12T08:19:21;8.40;99.90
15160;DHT22;7680;48.800;9.680;2023-04-12T08:21:54;8.50;99.90
15160;DHT22;7680;48.800;9.680;2023-04-12T08:24:28;8.40;99.90
15160;DHT22;7680;48.800;9.680;2023-04-12T08:27:01;8.30;99.90
15160;DHT22;7680;48.800;9.680;2023-04-12T08:29:34;8.40;99.90
15160;DHT22;7680;48.800;9.680;2023-04-12T08:32:07;8.40;99.90
15160;DHT22;7680;48.800;9.680;2023-04-12T08:34:43;8.50;99.90
15160;DHT22;7680;48.800;9.680;2023-04-12T08:37:17;8.50;99.90
15160;DHT22;7680;48.800;9.680;2023-04-12T08:39:51;8.50;99.90
15160;DHT22;7680;48.800;9.680;2023-04-12T08:42:24;8.50;99.90
15160;DHT22;7680;48.800;9.680;2023-04-12T08:44:57;8.60;99.90
15160;DHT22;7680;48.800;9.680;2023-04-12T08:47:31;8.60;99.90
15160;DHT22;7680;48.800;9.680;2023-04-12T08:50:06;8.60;99.90
15160;DHT22;7680;48.800;9.680;2023-04-12T08:52:42;8.70;99.90
15160;DHT22;7680;48.800;9.680;2023-04-12T08:55:16;8.70;99.90
15160;DHT22;7680;48.800;9.680;2023-04-12T08:57:52;8.80;99.90
15160;DHT22;7680;48.800;9.680;2023-04-12T09:00:26;8.80;99.90
15160;DHT22;7680;48.800;9.680;2023-04-12T09:02:59;8.90;99.90
15160;DHT22;7680;48.800;9.680;2023-04-12T09:05:33;8.80;99.90
15160;DHT22;7680;48.800;9.680;2023-04-12T09:08:06;8.80;99.90
15160;DHT22;7680;48.800;9.680;2023-04-12T09:10:41;8.90;99.90
15160;DHT22;7680;48.800;9.680;2023-04-12T09:13:14;8.80;99.90
15160;DHT22;7680;48.800;9.680;2023-04-12T09:15:48;8.90;99.90
15160;DHT22;7680;48.800;9.680;2023-04-12T09:18:21;8.90;99.90
15160;DHT22;7680;48.800;9.680;2023-04-12T09:21:08;8.90;99.90
15160;DHT22;7680;48.800;9.680;2023-04-12T09:23:42;8.90;99.90
15160;DHT22;7680;48.800;9.680;2023-04-12T09:26:27;9.10;99.90
15160;DHT22;7680;48.800;9.680;2023-04-12T09:29:00;9.00;99.90
15160;DHT22;7680;48.800;9.680;2023-04-12T09:31:34;9.00;99.90
15160;DHT22;7680;48.800;9.680;2023-04-12T09:34:07;9.00;99.90
15160;DHT22;7680;48.800;9.680;2023-04-12T09:36:41;9.10;99.90
15160;DHT22;7680;48.800;9.680;2023-04-12T09:39:14;9.20;99.90
15160;DHT22;7680;48.800;9.680;2023-04-12T09:42:03;9.20;99.90
15160;DHT22;7680;48.800;9.680;2023-04-12T09:44:43;9.20;99.90
15160;DHT22;7680;48.800;9.680;2023-04-12T09:47:16;9.30;99.90
15160;DHT22;7680;48.800;9.680;2023-04-12T09:49:49;9.40;99.90
15160;DHT22;7680;48.800;9.680;2023-04-12T09:52:22;9.40;99.90
15160;DHT22;7680;48.800;9.680;2023-04-12T09:54:55;9.40;99.90
15160;DHT22;7680;48.800;9.680;2023-04-12T09:57:30;9.60;99.90
15160;DHT22;7680;48.800;9.680;2023-04-12T10:00:07;9.50;99.90
15160;DHT22;7680;48.800;9.680;2023-04-12T10:02:44;9.60;99.90
15160;DHT22;7680;48.800;9.680;2023-04-12T10:05:20;9.60;99.90
15160;DHT22;7680;48.800;9.680;2023-04-12T10:07:57;9.60;99.90
15160;DHT22;7680;48.800;9.680;2023-04-12T10:10:31;9.50;99.90
15160;DHT22;7680;48.800;9.680;2023-04-12T10:13:06;9.60;99.90
15160;DHT22;7680;48.800;9.680;2023-04-12T10:15:43;9.70;99.90
15160;DHT22;7680;48.800;9.680;2023-04-12T10:18:17;9.70;99.90
15160;DHT22;7680;48.800;9.680;2023-04-12T10:20:50;9.80;99.90
15160;DHT22;7680;48.800;9.680;2023-04-12T10:23:24;9.80;99.90
15160;DHT22;7680;48.800;9.680;2023-04-12T10:25:58;9.90;99.90
15160;DHT22;7680;48.800;9.680;2023-04-12T10:28:33;10.00;99.90
15160;DHT22;7680;48.800;9.680;2023-04-12T10:31:27;10.00;99.90
15160;DHT22;7680;48.800;9.680;2023-04-12T10:34:02;10.00;99.90
15160;DHT22;7680;48.800;9.680;2023-04-12T10:36:51;10.10;99.90
15160;DHT22;7680;48.800;9.680;2023-04-12T10:39:43;10.10;99.90
15160;DHT22;7680;48.800;9.680;2023-04-12T10:42:25;10.00;99.90
15160;DHT22;7680;48.800;9.680;2023-04-12T10:48:28;10.00;99.90
15160;DHT22;7680;48.800;9.680;2023-04-12T10:51:13;10.10;99.90
15160;DHT22;7680;48.800;9.680;2023-04-12T10:53:48;10.10;99.90
15160;DHT22;7680;48.800;9.680;2023-04-12T10:56:36;10.10;99.90
15160;DHT22;7680;48.800;9.680;2023-04-12T10:59:10;10.20;99.90
15160;DHT22;7680;48.800;9.680;2023-04-12T11:05:04;10.10;99.90
15160;DHT22;7680;48.800;9.680;2023-04-12T11:07:41;10.30;99.90
15160;DHT22;7680;48.800;9.680;2023-04-12T11:10:15;10.40;99.90
15160;DHT22;7680;48.800;9.680;2023-04-12T11:12:52;10.40;99.90
15160;DHT22;7680;48.800;9.680;2023-04-12T11:15:30;10.50;99.90
15160;DHT22;7680;48.800;9.680;2023-04-12T11:18:06;10.50;99.90
15160;DHT22;7680;48.800;9.680;2023-04-12T11:20:40;10.60;99.90
15160;DHT22;7680;48.800;9.680;2023-04-12T11:23:13;10.70;99.90
15160;DHT22;7680;48.800;9.680;2023-04-12T11:25:50;10.80;99.90
15160;DHT22;7680;48.800;9.680;2023-04-12T11:28:24;10.90;99.90
15160;DHT22;7680;48.800;9.680;2023-04-12T11:31:02;10.90;99.90
15160;DHT22;7680;48.800;9.680;2023-04-12T11:33:38;11.20;99.90
15160;DHT22;7680;48.800;9.680;2023-04-12T11:36:12;11.40;99.90
15160;DHT22;7680;48.800;9.680;2023-04-12T11:38:46;11.40;99.90
15160;DHT22;7680;48.800;9.680;2023-04-12T11:41:21;11.60;99.90
15160;DHT22;7680;48.800;9.680;2023-04-12T11:43:54;11.80;99.90
15160;DHT22;7680;48.800;9.680;2023-04-12T11:46:32;11.80;99.90
15160;DHT22;7680;48.800;9.680;2023-04-12T11:49:08;12.00;99.90
15160;DHT22;7680;48.800;9.680;2023-04-12T11:51:42;12.10;99.90
15160;DHT22;7680;48.800;9.680;2023-04-12T11:54:17;12.20;99.90
15160;DHT22;7680;48.800;9.680;2023-04-12T11:56:50;12.40;99.90
15160;DHT22;7680;48.800;9.680;2023-04-12T11:59:30;12.50;99.90
15160;DHT22;7680;48.800;9.680;2023-04-12T12:02:05;12.70;99.90
15160;DHT22;7680;48.800;9.680;2023-04-12T12:04:55;12.70;99.90
15160;DHT22;7680;48.800;9.680;2023-04-12T12:07:29;12.60;99.90
15160;DHT22;7680;48.800;9.680;2023-04-12T12:10:03;12.50;99.90
15160;DHT22;7680;48.800;9.680;2023-04-12T12:12:37;12.50;99.90
15160;DHT22;7680;48.800;9.680;2023-04-12T12:15:10;12.60;99.90
15160;DHT22;7680;48.800;9.680;2023-04-12T12:17:49;12.50;99.90
15160;DHT22;7680;48.800;9.680;2023-04-12T12:20:24;12.50;99.90
15160;DHT22;7680;48.800;9.680;2023-04-12T12:22:58;12.60;99.90
15160;DHT22;7680;48.800;9.680;2023-04-12T12:25:31;12.70;99.90
15160;DHT22;7680;48.800;9.680;2023-04-12T12:28:04;12.90;99.90
15160;DHT22;7680;48.800;9.680;2023-04-12T12:30:38;13.00;99.90
15160;DHT22;7680;48.800;9.680;2023-04-12T12:33:11;13.00;99.90
15160;DHT22;7680;48.800;9.680;2023-04-12T12:35:46;13.20;99.90
15160;DHT22;7680;48.800;9.680;2023-04-12T12:38:20;13.20;99.90
15160;DHT22;7680;48.800;9.680;2023-04-12T12:41:14;13.10;99.90
15160;DHT22;7680;48.800;9.680;2023-04-12T12:43:50;12.90;99.90
15160;DHT22;7680;48.800;9.680;2023-04-12T12:46:24;13.10;99.90
15160;DHT22;7680;48.800;9.680;2023-04-12T12:49:18;13.20;99.90
15160;DHT22;7680;48.800;9.680;2023-04-12T12:51:52;13.30;99.90
15160;DHT22;7680;48.800;9.680;2023-04-12T12:54:25;13.40;99.90
15160;DHT22;7680;48.800;9.680;2023-04-12T12:57:11;13.60;99.90
15160;DHT22;7680;48.800;9.680;2023-04-12T12:59:44;13.60;99.90
15160;DHT22;7680;48.800;9.680;2023-04-12T13:02:17;13.50;99.90
15160;DHT22;7680;48.800;9.680;2023-04-12T13:04:51;13.60;99.90
15160;DHT22;7680;48.800;9.680;2023-04-12T13:07:26;13.70;99.90
15160;DHT22;7680;48.800;9.680;2023-04-12T13:09:59;13.80;99.90
15160;DHT22;7680;48.800;9.680;2023-04-12T13:12:32;13.80;99.90
15160;DHT22;7680;48.800;9.680;2023-04-12T13:15:06;13.70;99.90
15160;DHT22;7680;48.800;9.680;2023-04-12T13:17:53;13.60;99.90
15160;DHT22;7680;48.800;9.680;2023-04-12T13:20:27;13.70;99.90
15160;DHT22;7680;48.800;9.680;2023-04-12T13:23:01;13.90;99.90
15160;DHT22;7680;48.800;9.680;2023-04-12T13:25:34;13.80;99.90
15160;DHT22;7680;48.800;9.680;2023-04-12T13:28:08;13.70;99.90
15160;DHT22;7680;48.800;9.680;2023-04-12T13:30:41;13.70;99.90
15160;DHT22;7680;48.800;9.680;2023-04-12T13:33:14;13.70;99.90
15160;DHT22;7680;48.800;9.680;2023-04-12T13:35:51;13.80;99.90
15160;DHT22;7680;48.800;9.680;2023-04-12T13:38:26;13.70;99.90
15160;DHT22;7680;48.800;9.680;2023-04-12T13:40:59;13.60;99.90
15160;DHT22;7680;48.800;9.680;2023-04-12T13:43:32;13.70;99.90
15160;DHT22;7680;48.800;9.680;2023-04-12T13:46:05;13.60;99.90
15160;DHT22;7680;48.800;9.680;2023-04-12T13:48:38;13.50;99.90
15160;DHT22;7680;48.800;9.680;2023-04-12T13:51:11;13.40;99.90
15160;DHT22;7680;48.800;9.680;2023-04-12T13:53:46;13.40;99.90
15160;DHT22;7680;48.800;9.680;2023-04-12T13:56:19;13.40;99.90
15160;DHT22;7680;48.800;9.680;2023-04-12T13:58:52;13.30;99.90
15160;DHT22;7680;48.800;9.680;2023-04-12T14:01:25;13.30;99.90
15160;DHT22;7680;48.800;9.680;2023-04-12T14:03:58;13.40;99.90
15160;DHT22;7680;48.800;9.680;2023-04-12T14:06:32;13.40;99.90
15160;DHT22;7680;48.800;9.680;2023-04-12T14:09:06;13.40;99.90
15160;DHT22;7680;48.800;9.680;2023-04-12T14:11:49;13.50;99.90
15160;DHT22;7680;48.800;9.680;2023-04-12T14:14:23;13.50;99.90
15160;DHT22;7680;48.800;9.680;2023-04-12T14:16:57;13.60;99.90
15160;DHT22;7680;48.800;9.680;2023-04-12T14:19:32;13.50;99.90
15160;DHT22;7680;48.800;9.680;2023-04-12T14:22:06;13.60;99.90
15160;DHT22;7680;48.800;9.680;2023-04-12T14:24:40;13.70;99.90
15160;DHT22;7680;48.800;9.680;2023-04-12T14:27:13;13.70;99.90
15160;DHT22;7680;48.800;9.680;2023-04-12T14:29:48;13.70;99.90
15160;DHT22;7680;48.800;9.680;2023-04-12T14:32:22;13.60;99.90
15160;DHT22;7680;48.800;9.680;2023-04-12T14:34:55;13.60;99.90
15160;DHT22;7680;48.800;9.680;2023-04-12T14:37:29;13.50;99.90
15160;DHT22;7680;48.800;9.680;2023-04-12T14:40:05;13.50;99.90
15160;DHT22;7680;48.800;9.680;2023-04-12T14:42:39;13.50;99.90
15160;DHT22;7680;48.800;9.680;2023-04-12T14:45:13;13.40;99.90
15160;DHT22;7680;48.800;9.680;2023-04-12T14:47:48;13.40;99.90
15160;DHT22;7680;48.800;9.680;2023-04-12T14:50:21;13.40;99.90
15160;DHT22;7680;48.800;9.680;2023-04-12T14:52:54;13.60;99.90
15160;DHT22;7680;48.800;9.680;2023-04-12T14:55:29;13.60;99.90
15160;DHT22;7680;48.800;9.680;2023-04-12T14:58:04;14.00;99.90
15160;DHT22;7680;48.800;9.680;2023-04-12T15:00:37;14.20;99.90
15160;DHT22;7680;48.800;9.680;2023-04-12T15:03:11;14.10;99.90
15160;DHT22;7680;48.800;9.680;2023-04-12T15:05:44;14.10;99.90
15160;DHT22;7680;48.800;9.680;2023-04-12T15:08:17;14.10;99.90
15160;DHT22;7680;48.800;9.680;2023-04-12T15:10:52;14.30;99.90
15160;DHT22;7680;48.800;9.680;2023-04-12T15:13:25;14.30;99.90
15160;DHT22;7680;48.800;9.680;2023-04-12T15:16:05;14.60;99.90
15160;DHT22;7680;48.800;9.680;2023-04-12T15:18:41;14.30;99.90
15160;DHT22;7680;48.800;9.680;2023-04-12T15:21:14;14.20;99.90
15160;DHT22;7680;48.800;9.680;2023-04-12T15:23:47;14.30;99.90
15160;DHT22;7680;48.800;9.680;2023-04-12T15:26:21;14.40;99.90
15160;DHT22;7680;48.800;9.680;2023-04-12T15:28:55;14.30;99.90
15160;DHT22;7680;48.800;9.680;2023-04-12T15:31:28;14.50;99.90
15160;DHT22;7680;48.800;9.680;2023-04-12T15:34:01;14.60;99.90
15160;DHT22;7680;48.800;9.680;2023-04-12T15:36:35;14.30;99.90
15160;DHT22;7680;48.800;9.680;2023-04-12T15:39:10;14.40;99.90
15160;DHT22;7680;48.800;9.680;2023-04-12T15:41:45;14.40;99.90
15160;DHT22;7680;48.800;9.680;2023-04-12T15:44:18;14.40;99.90
15160;DHT22;7680;48.800;9.680;2023-04-12T15:46:55;14.50;99.90
15160;DHT22;7680;48.800;9.680;2023-04-12T15:49:42;14.50;99.90
15160;DHT22;7680;48.800;9.680;2023-04-12T15:52:15;14.60;99.90
15160;DHT22;7680;48.800;9.680;2023-04-12T15:54:48;14.40;99.90
15160;DHT22;7680;48.800;9.680;2023-04-12T15:57:23;13.70;99.90
15160;DHT22;7680;48.800;9.680;2023-04-12T15:59:57;12.70;99.90
15160;DHT22;7680;48.800;9.680;2023-04-12T16:02:32;12.00;99.90
15160;DHT22;7680;48.800;9.680;2023-04-12T16:05:06;11.50;99.90
15160;DHT22;7680;48.800;9.680;2023-04-12T16:07:39;11.30;99.90
15160;DHT22;7680;48.800;9.680;2023-04-12T16:10:14;11.20;99.90
15160;DHT22;7680;48.800;9.680;2023-04-12T16:12:53;10.90;99.90
15160;DHT22;7680;48.800;9.680;2023-04-12T16:15:27;10.70;99.90
15160;DHT22;7680;48.800;9.680;2023-04-12T16:18:00;10.50;99.90
15160;DHT22;7680;48.800;9.680;2023-04-12T16:20:33;10.40;99.90
15160;DHT22;7680;48.800;9.680;2023-04-12T16:23:06;10.40;99.90
15160;DHT22;7680;48.800;9.680;2023-04-12T16:25:40;10.30;99.90
15160;DHT22;7680;48.800;9.680;2023-04-12T16:28:14;10.40;99.90
15160;DHT22;7680;48.800;9.680;2023-04-12T16:30:48;10.30;99.90
15160;DHT22;7680;48.800;9.680;2023-04-12T16:33:22;10.30;99.90
15160;DHT22;7680;48.800;9.680;2023-04-12T16:35:55;10.20;99.90
15160;DHT22;7680;48.800;9.680;2023-04-12T16:38:29;10.20;99.90
15160;DHT22;7680;48.800;9.680;2023-04-12T16:41:03;10.30;99.90
15160;DHT22;7680;48.800;9.680;2023-04-12T16:43:38;10.30;99.90
15160;DHT22;7680;48.800;9.680;2023-04-12T16:46:14;10.20;99.90
15160;DHT22;7680;48.800;9.680;2023-04-12T16:48:47;10.30;99.90
15160;DHT22;7680;48.800;9.680;2023-04-12T16:51:20;10.20;99.90